Time;durP1;ratioP1;P1;durP2;ratioP2;P2;SDS_P1;SDS_P2;PMS_P1;PMS_P2;Temp;Humidity;BMP_temperature;BMP_pressure;BME280_temperature;BME280_humidity;BME280_pressure;Samples;Min_cycle;Max_cycle;Signal;HPM_P1;HPM_P2
2023/07/28 00:00:29;;;;;;;4.82;1.65;;;;;;;;;;5092362;28;20278;-70
2023/07/28 00:02:54;;;;;;;6.27;2.00;;;;;;;;;;5088925;28;20031;-68
2023/07/28 00:05:19;;;;;;;4.43;1.70;;;;;;;;;;5095133;28;20026;-65
2023/07/28 00:07:44;;;;;;;5.33;1.80;;;;;;;;;;5092236;28;20990;-67
2023/07/28 00:10:10;;;;;;;4.93;1.83;;;;;;;;;;5090992;28;20020;-67
2023/07/28 00:12:38;;;;;;;4.68;1.77;;;;;;;;;;5093177;28;20273;-65
2023/07/28 00:15:03;;;;;;;6.75;1.77;;;;;;;;;;5092753;28;20015;-66
2023/07/28 00:17:29;;;;;;;4.95;1.70;;;;;;;;;;5084466;28;20656;-68
2023/07/28 00:19:54;;;;;;;5.43;1.70;;;;;;;;;;5094288;28;20016;-68
2023/07/28 00:22:19;;;;;;;4.20;1.70;;;;;;;;;;5091393;28;20545;-68
2023/07/28 00:24:45;;;;;;;6.18;1.73;;;;;;;;;;5090966;28;20873;-68
2023/07/28 00:27:10;;;;;;;4.93;1.73;;;;;;;;;;5091682;28;20026;-69
2023/07/28 00:29:35;;;;;;;5.53;1.63;;;;;;;;;;5089302;28;20030;-65
2023/07/28 00:32:03;;;;;;;5.03;1.77;;;;;;;;;;5092321;28;20317;-65
2023/07/28 00:34:28;;;;;;;4.50;1.70;;;;;;;;;;5089168;28;20042;-65
2023/07/28 00:36:55;;;;;;;6.38;1.90;;;;;;;;;;5096233;28;20270;-67
2023/07/28 00:39:21;;;;;;;4.95;1.90;;;;;;;;;;5089002;28;20027;-67
2023/07/28 00:41:46;;;;;;;5.30;2.03;;;;;;;;;;5083604;28;20020;-69
2023/07/28 00:44:11;;;;;;;5.40;1.67;;;;;;;;;;5083883;28;20390;-68
2023/07/28 00:46:37;;;;;;;5.57;1.63;;;;;;;;;;5079640;28;20016;-67
2023/07/28 00:49:03;;;;;;;4.22;1.70;;;;;;;;;;5069849;28;20084;-66
2023/07/28 00:51:31;;;;;;;5.82;1.85;;;;;;;;;;5089779;28;20114;-66
2023/07/28 00:54:01;;;;;;;4.40;1.90;;;;;;;;;;5082879;28;20020;-65
2023/07/28 00:56:27;;;;;;;4.68;1.77;;;;;;;;;;5081086;28;20016;-67
2023/07/28 00:58:53;;;;;;;4.53;1.70;;;;;;;;;;5094422;28;20042;-66
2023/07/28 01:01:18;;;;;;;5.47;1.80;;;;;;;;;;5082992;28;20058;-66
2023/07/28 01:03:43;;;;;;;4.68;1.90;;;;;;;;;;5088562;28;20055;-66
2023/07/28 01:06:09;;;;;;;5.40;1.70;;;;;;;;;;5089839;28;20035;-67
2023/07/28 01:08:38;;;;;;;4.67;1.80;;;;;;;;;;5082933;28;20104;-67
2023/07/28 01:11:04;;;;;;;5.85;1.75;;;;;;;;;;5081755;28;20254;-68
2023/07/28 01:13:29;;;;;;;4.90;1.80;;;;;;;;;;5085368;28;20023;-67
2023/07/28 01:15:57;;;;;;;4.27;1.60;;;;;;;;;;5081276;28;20293;-69
2023/07/28 01:18:23;;;;;;;5.75;1.92;;;;;;;;;;5090805;28;20065;-70
2023/07/28 01:20:55;;;;;;;4.32;1.92;;;;;;;;;;5084221;28;20024;-66
2023/07/28 01:23:25;;;;;;;6.13;1.90;;;;;;;;;;5084234;28;20104;-68
2023/07/28 01:26:07;;;;;;;5.78;1.85;;;;;;;;;;5084109;28;20020;-68
2023/07/28 01:28:34;;;;;;;6.07;2.00;;;;;;;;;;5081398;28;20019;-67
2023/07/28 01:31:01;;;;;;;5.05;1.85;;;;;;;;;;5082427;28;20039;-68
2023/07/28 01:33:26;;;;;;;7.45;1.70;;;;;;;;;;5089332;28;20031;-66
2023/07/28 01:35:52;;;;;;;5.03;1.90;;;;;;;;;;5087402;28;20020;-68
2023/07/28 01:38:17;;;;;;;4.60;2.20;;;;;;;;;;5089417;28;20510;-66
2023/07/28 01:40:45;;;;;;;5.07;2.00;;;;;;;;;;5085863;28;20019;-67
2023/07/28 01:43:13;;;;;;;5.03;1.77;;;;;;;;;;5081735;28;20039;-69
2023/07/28 01:45:38;;;;;;;5.15;2.00;;;;;;;;;;5087589;28;20031;-64
2023/07/28 01:48:06;;;;;;;4.65;1.70;;;;;;;;;;5087880;28;20562;-70
2023/07/28 01:50:31;;;;;;;5.47;2.00;;;;;;;;;;5080172;28;20479;-67
2023/07/28 01:52:58;;;;;;;5.93;1.97;;;;;;;;;;5086924;28;20110;-72
2023/07/28 01:55:23;;;;;;;5.32;1.70;;;;;;;;;;5084214;28;20759;-70
2023/07/28 01:57:59;;;;;;;5.93;1.83;;;;;;;;;;5090956;28;20034;-69
2023/07/28 02:00:24;;;;;;;4.30;1.63;;;;;;;;;;5071534;28;20254;-69
2023/07/28 02:02:55;;;;;;;4.75;1.80;;;;;;;;;;5081717;28;20035;-70
2023/07/28 02:05:20;;;;;;;4.28;1.58;;;;;;;;;;5084674;28;20484;-68
2023/07/28 02:07:45;;;;;;;6.65;1.92;;;;;;;;;;5088604;28;20024;-69
2023/07/28 02:10:13;;;;;;;4.53;1.80;;;;;;;;;;5084463;28;20023;-67
2023/07/28 02:12:38;;;;;;;4.78;2.05;;;;;;;;;;5098065;28;20018;-66
2023/07/28 02:15:05;;;;;;;4.55;1.67;;;;;;;;;;5092541;28;20518;-70
2023/07/28 02:17:30;;;;;;;9.07;2.03;;;;;;;;;;5087601;28;20069;-72
2023/07/28 02:19:56;;;;;;;4.53;1.93;;;;;;;;;;5095628;28;20051;-66
2023/07/28 02:22:21;;;;;;;4.70;1.87;;;;;;;;;;5093888;28;20273;-68
2023/07/28 02:24:46;;;;;;;4.63;1.70;;;;;;;;;;5094988;28;20497;-67
2023/07/28 02:27:11;;;;;;;4.40;1.80;;;;;;;;;;5096149;28;20529;-68
2023/07/28 02:29:37;;;;;;;4.80;2.33;;;;;;;;;;5095438;28;20645;-65
2023/07/28 02:32:02;;;;;;;4.60;2.00;;;;;;;;;;5088415;28;20261;-64
2023/07/28 02:34:27;;;;;;;4.82;1.80;;;;;;;;;;5089793;28;20034;-66
2023/07/28 02:36:53;;;;;;;5.82;2.10;;;;;;;;;;5088498;28;20103;-69
2023/07/28 02:39:18;;;;;;;4.10;1.60;;;;;;;;;;5092607;28;20031;-68
2023/07/28 02:41:43;;;;;;;5.10;1.97;;;;;;;;;;5089625;28;20032;-65
2023/07/28 02:44:08;;;;;;;4.70;1.83;;;;;;;;;;5094322;28;20114;-65
2023/07/28 02:46:33;;;;;;;6.50;1.73;;;;;;;;;;5081355;28;20651;-69
2023/07/28 02:48:59;;;;;;;4.60;1.83;;;;;;;;;;5088291;28;20421;-71
2023/07/28 02:51:26;;;;;;;5.10;1.83;;;;;;;;;;5094516;28;20091;-68
2023/07/28 02:53:54;;;;;;;6.38;1.90;;;;;;;;;;5093442;28;20039;-71
2023/07/28 02:56:20;;;;;;;5.22;1.98;;;;;;;;;;5091088;28;20016;-69
2023/07/28 02:58:45;;;;;;;5.32;1.65;;;;;;;;;;5092770;28;20054;-67
2023/07/28 03:01:13;;;;;;;6.10;1.90;;;;;;;;;;5090326;28;20087;-68
2023/07/28 03:03:41;;;;;;;5.40;2.10;;;;;;;;;;5087909;28;20307;-65
2023/07/28 03:06:06;;;;;;;4.68;1.90;;;;;;;;;;5085229;28;20511;-66
2023/07/28 03:08:34;;;;;;;5.30;1.87;;;;;;;;;;5090935;28;20020;-68
2023/07/28 03:11:02;;;;;;;4.25;1.85;;;;;;;;;;5090986;28;20020;-68
2023/07/28 03:13:29;;;;;;;5.38;2.05;;;;;;;;;;5093277;28;20027;-66
2023/07/28 03:15:55;;;;;;;4.93;2.17;;;;;;;;;;5090233;28;20019;-68
2023/07/28 03:18:22;;;;;;;4.50;1.97;;;;;;;;;;5092637;28;20048;-67
2023/07/28 03:20:47;;;;;;;4.60;1.90;;;;;;;;;;5089598;28;20257;-68
2023/07/28 03:23:13;;;;;;;5.57;1.90;;;;;;;;;;5093126;28;20510;-66
2023/07/28 03:25:38;;;;;;;4.85;1.90;;;;;;;;;;5098625;28;20103;-66
2023/07/28 03:28:03;;;;;;;4.20;1.70;;;;;;;;;;5096034;28;20046;-72
2023/07/28 03:30:28;;;;;;;5.57;1.90;;;;;;;;;;5099772;27;20249;-66
2023/07/28 03:32:54;;;;;;;5.43;2.10;;;;;;;;;;5093024;28;21001;-68
2023/07/28 03:35:19;;;;;;;4.73;1.80;;;;;;;;;;5087597;28;20338;-65
2023/07/28 03:37:47;;;;;;;4.03;1.67;;;;;;;;;;5095496;28;20260;-65
2023/07/28 03:40:15;;;;;;;5.25;1.80;;;;;;;;;;5098397;28;20077;-68
2023/07/28 03:42:40;;;;;;;6.28;1.95;;;;;;;;;;5092881;28;20038;-70
2023/07/28 03:45:05;;;;;;;5.50;2.15;;;;;;;;;;5097480;28;20048;-66
2023/07/28 03:47:31;;;;;;;4.78;1.83;;;;;;;;;;5088665;28;20488;-69
2023/07/28 03:49:56;;;;;;;5.00;1.80;;;;;;;;;;5090500;28;20069;-67
2023/07/28 03:52:21;;;;;;;4.90;2.00;;;;;;;;;;5085089;28;20760;-69
2023/07/28 03:54:49;;;;;;;5.50;2.00;;;;;;;;;;5090996;28;20342;-65
2023/07/28 03:57:14;;;;;;;4.80;1.95;;;;;;;;;;5089331;28;20277;-63
2023/07/28 03:59:39;;;;;;;5.77;1.70;;;;;;;;;;5088892;28;20631;-68
2023/07/28 04:02:08;;;;;;;6.47;2.03;;;;;;;;;;5086310;28;20282;-67
2023/07/28 04:04:36;;;;;;;5.45;2.08;;;;;;;;;;5087509;28;20031;-66
2023/07/28 04:07:01;;;;;;;5.18;1.58;;;;;;;;;;5085668;28;20058;-67
2023/07/28 04:09:26;;;;;;;5.13;1.80;;;;;;;;;;5087264;28;20024;-64
2023/07/28 04:11:52;;;;;;;5.17;1.83;;;;;;;;;;5089739;28;20026;-67
2023/07/28 04:14:17;;;;;;;4.43;1.80;;;;;;;;;;5100736;28;20254;-67
2023/07/28 04:16:42;;;;;;;4.70;1.80;;;;;;;;;;5093265;28;20022;-65
2023/07/28 04:19:07;;;;;;;4.50;1.90;;;;;;;;;;5089385;28;20889;-68
2023/07/28 04:21:33;;;;;;;7.90;2.07;;;;;;;;;;5089633;28;20592;-67
2023/07/28 04:24:00;;;;;;;5.95;1.98;;;;;;;;;;5092039;28;20070;-66
2023/07/28 04:26:25;;;;;;;5.57;2.05;;;;;;;;;;5091516;28;20015;-67
2023/07/28 04:28:51;;;;;;;5.43;1.80;;;;;;;;;;5090537;28;20027;-68
2023/07/28 04:31:16;;;;;;;4.85;2.00;;;;;;;;;;5090127;28;20262;-71
2023/07/28 04:33:46;;;;;;;4.32;1.77;;;;;;;;;;5095292;28;20016;-68
2023/07/28 04:36:12;;;;;;;4.55;1.92;;;;;;;;;;5093692;28;20026;-65
2023/07/28 04:38:37;;;;;;;4.67;2.00;;;;;;;;;;5097075;28;20007;-67
2023/07/28 04:41:03;;;;;;;4.47;1.70;;;;;;;;;;5091946;28;20023;-68
2023/07/28 04:43:30;;;;;;;4.78;1.92;;;;;;;;;;5096838;28;20034;-68
2023/07/28 04:45:55;;;;;;;4.70;2.13;;;;;;;;;;5091703;28;20019;-68
2023/07/28 04:48:21;;;;;;;5.23;2.17;;;;;;;;;;5092725;28;20478;-68
2023/07/28 04:50:46;;;;;;;5.47;1.70;;;;;;;;;;5093903;28;20324;-68
2023/07/28 04:53:11;;;;;;;4.53;1.73;;;;;;;;;;5094513;28;20054;-68
2023/07/28 04:55:37;;;;;;;4.10;1.77;;;;;;;;;;5094535;28;20056;-65
2023/07/28 04:58:02;;;;;;;5.00;1.60;;;;;;;;;;5091860;28;20115;-66
2023/07/28 05:00:30;;;;;;;4.45;2.00;;;;;;;;;;5091793;28;20743;-66
2023/07/28 05:02:58;;;;;;;4.97;2.35;;;;;;;;;;5089530;28;20035;-66
2023/07/28 05:05:23;;;;;;;6.28;1.75;;;;;;;;;;5088558;28;20048;-66
2023/07/28 05:07:48;;;;;;;5.30;1.83;;;;;;;;;;5092260;28;20153;-65
2023/07/28 05:10:16;;;;;;;5.03;1.90;;;;;;;;;;5093159;28;20073;-66
2023/07/28 05:12:41;;;;;;;4.70;1.92;;;;;;;;;;5088425;28;20273;-67
2023/07/28 05:15:10;;;;;;;5.00;1.87;;;;;;;;;;5091353;28;20018;-68
2023/07/28 05:17:38;;;;;;;4.20;1.70;;;;;;;;;;5090972;28;20162;-69
2023/07/28 05:20:03;;;;;;;5.07;2.05;;;;;;;;;;5085395;28;20221;-67
2023/07/28 05:22:28;;;;;;;4.82;1.70;;;;;;;;;;5087086;28;20036;-70
2023/07/28 05:24:53;;;;;;;4.90;2.03;;;;;;;;;;5085682;28;20004;-67
2023/07/28 05:27:21;;;;;;;4.47;1.70;;;;;;;;;;5083660;28;20022;-70
2023/07/28 05:29:46;;;;;;;4.80;1.83;;;;;;;;;;5088338;28;20106;-70
2023/07/28 05:32:12;;;;;;;6.60;2.10;;;;;;;;;;5084757;28;20027;-67
2023/07/28 05:34:37;;;;;;;6.15;1.77;;;;;;;;;;5084603;28;20028;-73
2023/07/28 05:37:02;;;;;;;5.72;2.08;;;;;;;;;;5084675;28;20625;-65
2023/07/28 05:39:27;;;;;;;7.28;1.95;;;;;;;;;;5089947;28;20012;-67
2023/07/28 05:41:53;;;;;;;5.07;2.10;;;;;;;;;;5084764;28;20154;-65
2023/07/28 05:44:19;;;;;;;5.50;1.80;;;;;;;;;;5086392;28;20019;-65
2023/07/28 05:46:45;;;;;;;4.80;2.25;;;;;;;;;;5090652;28;20020;-66
2023/07/28 05:49:10;;;;;;;4.97;1.92;;;;;;;;;;5094790;28;20012;-68
2023/07/28 05:51:36;;;;;;;6.30;1.90;;;;;;;;;;5084691;28;20473;-68
2023/07/28 05:54:01;;;;;;;7.13;2.00;;;;;;;;;;5088602;28;20245;-68
2023/07/28 05:56:26;;;;;;;5.50;2.30;;;;;;;;;;5089452;28;20092;-66
2023/07/28 05:58:51;;;;;;;4.47;1.80;;;;;;;;;;5089164;28;20107;-68
2023/07/28 06:01:17;;;;;;;5.28;2.13;;;;;;;;;;5085753;28;20270;-67
2023/07/28 06:03:43;;;;;;;6.82;2.97;;;;;;;;;;5080270;28;20156;-65
2023/07/28 06:06:10;;;;;;;4.53;1.95;;;;;;;;;;5084305;28;20103;-67
2023/07/28 06:08:35;;;;;;;4.78;2.05;;;;;;;;;;5083654;28;20126;-66
2023/07/28 06:11:07;;;;;;;5.55;2.10;;;;;;;;;;5082846;28;20776;-69
2023/07/28 06:13:32;;;;;;;4.93;1.95;;;;;;;;;;5088147;28;20088;-66
2023/07/28 06:16:00;;;;;;;4.40;1.75;;;;;;;;;;5087461;28;20079;-69
2023/07/28 06:18:25;;;;;;;4.95;1.77;;;;;;;;;;5085833;28;20051;-68
2023/07/28 06:20:50;;;;;;;5.40;2.10;;;;;;;;;;5089754;28;20027;-67
2023/07/28 06:23:16;;;;;;;5.53;2.07;;;;;;;;;;5090961;28;20281;-66
2023/07/28 06:25:44;;;;;;;4.72;1.92;;;;;;;;;;5088339;28;20249;-69
2023/07/28 06:28:12;;;;;;;4.70;2.03;;;;;;;;;;5088566;28;20059;-68
2023/07/28 06:30:38;;;;;;;5.45;2.00;;;;;;;;;;5085770;28;20014;-64
2023/07/28 06:33:03;;;;;;;6.28;2.00;;;;;;;;;;5087573;28;20028;-67
2023/07/28 06:35:29;;;;;;;6.07;2.10;;;;;;;;;;5088353;28;20167;-65
2023/07/28 06:37:57;;;;;;;4.75;1.77;;;;;;;;;;5088187;28;20110;-67
2023/07/28 06:40:22;;;;;;;5.57;2.10;;;;;;;;;;5084417;28;20020;-64
2023/07/28 06:42:47;;;;;;;4.88;1.85;;;;;;;;;;5080783;28;20059;-67
2023/07/28 06:45:13;;;;;;;5.23;2.00;;;;;;;;;;5082159;28;20755;-66
2023/07/28 06:47:39;;;;;;;5.30;2.00;;;;;;;;;;5085209;28;20811;-67
2023/07/28 06:50:05;;;;;;;4.87;2.00;;;;;;;;;;5088280;28;20027;-65
2023/07/28 06:52:30;;;;;;;5.00;1.90;;;;;;;;;;5088643;28;20044;-67
2023/07/28 06:58:20;;;;;;;5.32;2.10;;;;;;;;;;5088554;28;20050;-66
2023/07/28 07:00:51;;;;;;;4.72;1.95;;;;;;;;;;5089317;28;20517;-67
2023/07/28 07:03:44;;;;;;;5.63;1.95;;;;;;;;;;5090845;28;20771;-66
2023/07/28 07:06:15;;;;;;;5.72;2.00;;;;;;;;;;5094379;28;20646;-68
2023/07/28 07:09:05;;;;;;;6.45;1.95;;;;;;;;;;5086373;28;20020;-66
2023/07/28 07:11:31;;;;;;;4.30;1.90;;;;;;;;;;5089258;28;20470;-67
2023/07/28 07:13:56;;;;;;;4.72;1.98;;;;;;;;;;5093060;28;20033;-65
2023/07/28 07:16:21;;;;;;;5.80;1.90;;;;;;;;;;5086449;28;20020;-70
2023/07/28 07:19:24;;;;;;;4.25;1.80;;;;;;;;;;5085073;28;20052;-64
2023/07/28 07:28:01;;;;;;;6.72;1.95;;;;;;;;;;5092954;28;20080;-64
2023/07/28 07:30:51;;;;;;;5.28;2.00;;;;;;;;;;5079193;28;20020;-65
2023/07/28 07:42:28;;;;;;;4.72;1.90;;;;;;;;;;5096670;28;20081;-64
2023/07/28 07:44:53;;;;;;;4.57;1.90;;;;;;;;;;5088917;28;20118;-67
2023/07/28 07:47:21;;;;;;;5.07;1.77;;;;;;;;;;5096571;28;20727;-65
2023/07/28 07:49:49;;;;;;;3.97;1.60;;;;;;;;;;5094575;28;21047;-67
2023/07/28 07:52:14;;;;;;;5.13;2.15;;;;;;;;;;5092218;28;20026;-66
2023/07/28 07:54:39;;;;;;;5.10;2.00;;;;;;;;;;5094265;28;20011;-70
2023/07/28 07:57:05;;;;;;;5.22;2.05;;;;;;;;;;5095775;28;20030;-66
2023/07/28 07:59:32;;;;;;;5.10;2.00;;;;;;;;;;5086994;28;20950;-68
2023/07/28 08:02:00;;;;;;;4.63;1.92;;;;;;;;;;5097155;28;20029;-67
2023/07/28 08:04:25;;;;;;;4.20;1.80;;;;;;;;;;5096645;28;20019;-64
2023/07/28 08:06:50;;;;;;;4.90;1.70;;;;;;;;;;5093646;28;20015;-67
2023/07/28 08:09:16;;;;;;;4.75;1.95;;;;;;;;;;5095580;28;20418;-67
2023/07/28 08:11:41;;;;;;;4.68;1.80;;;;;;;;;;5095905;28;20012;-68
2023/07/28 08:14:06;;;;;;;3.83;1.50;;;;;;;;;;5090465;28;20015;-69
2023/07/28 08:16:31;;;;;;;4.40;1.87;;;;;;;;;;5092906;28;20031;-71
2023/07/28 08:18:57;;;;;;;5.43;1.80;;;;;;;;;;5092625;28;20142;-67
2023/07/28 08:21:22;;;;;;;4.93;1.60;;;;;;;;;;5091761;28;20012;-64
2023/07/28 08:23:50;;;;;;;4.05;1.60;;;;;;;;;;5091018;27;20253;-66
2023/07/28 08:26:18;;;;;;;5.55;1.92;;;;;;;;;;5091124;28;20603;-67
2023/07/28 08:28:43;;;;;;;5.85;2.30;;;;;;;;;;5080473;28;20080;-68
2023/07/28 08:31:10;;;;;;;5.80;1.80;;;;;;;;;;5080929;28;20942;-64
2023/07/28 08:33:36;;;;;;;6.00;1.80;;;;;;;;;;5076299;28;20070;-68
2023/07/28 08:36:01;;;;;;;4.73;1.73;;;;;;;;;;5079852;28;20579;-71
2023/07/28 08:38:28;;;;;;;4.53;1.80;;;;;;;;;;5083207;28;20258;-66
2023/07/28 08:40:56;;;;;;;5.47;1.90;;;;;;;;;;5088595;28;20266;-67
2023/07/28 08:43:23;;;;;;;4.28;1.75;;;;;;;;;;5079306;28;20020;-65
2023/07/28 08:45:49;;;;;;;5.00;1.80;;;;;;;;;;5081857;28;20012;-65
2023/07/28 08:48:14;;;;;;;4.65;1.55;;;;;;;;;;5081293;28;20020;-65
2023/07/28 08:50:40;;;;;;;5.07;1.85;;;;;;;;;;5080676;28;20445;-64
2023/07/28 08:53:05;;;;;;;4.95;1.70;;;;;;;;;;5082217;27;20015;-67
2023/07/28 08:55:30;;;;;;;6.77;3.40;;;;;;;;;;5080549;28;20096;-71
2023/07/28 08:57:55;;;;;;;5.30;1.90;;;;;;;;;;5081657;28;20105;-67
2023/07/28 09:00:21;;;;;;;5.70;1.80;;;;;;;;;;5082452;28;20261;-69
2023/07/28 09:02:50;;;;;;;4.30;1.90;;;;;;;;;;5083128;28;20128;-68
2023/07/28 09:05:24;;;;;;;5.05;1.80;;;;;;;;;;5083037;28;20102;-67
2023/07/28 09:07:49;;;;;;;4.60;2.00;;;;;;;;;;5087847;28;20101;-68
2023/07/28 09:10:17;;;;;;;4.88;2.03;;;;;;;;;;5082272;28;20097;-65
2023/07/28 09:12:47;;;;;;;4.75;1.67;;;;;;;;;;5082526;28;20020;-65
2023/07/28 09:15:16;;;;;;;5.25;1.90;;;;;;;;;;5080982;28;20351;-66
2023/07/28 09:26:40;;;;;;;7.45;1.95;;;;;;;;;;5081515;28;20214;-68
2023/07/28 09:29:24;;;;;;;5.38;1.73;;;;;;;;;;5078430;28;20514;-69
2023/07/28 09:38:07;;;;;;;6.30;1.95;;;;;;;;;;5079694;28;20062;-62
2023/07/28 09:49:41;;;;;;;5.57;1.65;;;;;;;;;;5080563;28;20405;-68
2023/07/28 09:52:09;;;;;;;5.25;1.70;;;;;;;;;;5081822;28;20597;-69
2023/07/28 09:54:42;;;;;;;4.60;2.00;;;;;;;;;;5086865;28;20846;-69
2023/07/28 09:57:11;;;;;;;4.55;1.90;;;;;;;;;;5077582;28;20180;-68
2023/07/28 09:59:38;;;;;;;4.03;1.67;;;;;;;;;;5079179;28;20055;-70
2023/07/28 10:02:06;;;;;;;4.53;2.03;;;;;;;;;;5085256;28;20046;-65
2023/07/28 10:04:32;;;;;;;4.47;1.60;;;;;;;;;;5086419;28;20015;-71
2023/07/28 10:07:00;;;;;;;5.72;1.90;;;;;;;;;;5078579;28;20030;-64
2023/07/28 10:09:26;;;;;;;4.72;1.90;;;;;;;;;;5091131;28;20019;-66
2023/07/28 10:11:52;;;;;;;4.65;1.88;;;;;;;;;;5092178;28;20059;-72
2023/07/28 10:14:31;;;;;;;6.47;1.77;;;;;;;;;;5098177;28;20099;-66
2023/07/28 10:17:01;;;;;;;5.03;2.15;;;;;;;;;;5092888;28;20932;-67
2023/07/28 10:19:27;;;;;;;4.93;1.80;;;;;;;;;;5081461;28;20112;-69
2023/07/28 10:22:02;;;;;;;6.60;1.67;;;;;;;;;;5089413;28;20383;-68
2023/07/28 10:24:46;;;;;;;5.70;1.90;;;;;;;;;;5088379;28;20076;-67
2023/07/28 10:27:27;;;;;;;5.97;1.77;;;;;;;;;;5086416;28;20111;-68
2023/07/28 10:29:56;;;;;;;4.97;1.80;;;;;;;;;;5091361;28;20124;-70
2023/07/28 10:32:33;;;;;;;5.63;2.05;;;;;;;;;;5088769;28;20039;-66
2023/07/28 10:35:00;;;;;;;5.57;2.08;;;;;;;;;;5093783;28;20028;-67
2023/07/28 10:37:25;;;;;;;5.15;1.92;;;;;;;;;;5095197;28;20015;-64
2023/07/28 10:40:12;;;;;;;4.97;2.20;;;;;;;;;;5090082;28;20450;-70
2023/07/28 10:42:38;;;;;;;5.18;1.90;;;;;;;;;;5094433;28;20502;-65
2023/07/28 10:45:04;;;;;;;5.75;2.22;;;;;;;;;;5093455;28;20022;-66
2023/07/28 10:47:32;;;;;;;8.77;2.40;;;;;;;;;;5083269;28;20672;-64
2023/07/28 10:50:02;;;;;;;6.50;2.25;;;;;;;;;;5093718;28;20016;-68
2023/07/28 10:52:27;;;;;;;4.63;1.90;;;;;;;;;;5088258;28;20073;-67
2023/07/28 10:54:52;;;;;;;7.47;2.40;;;;;;;;;;5092115;28;20782;-68
2023/07/28 10:57:19;;;;;;;5.60;2.13;;;;;;;;;;5093512;28;20034;-62
2023/07/28 10:59:46;;;;;;;5.80;1.92;;;;;;;;;;5092800;28;20019;-64
2023/07/28 11:02:15;;;;;;;5.75;1.70;;;;;;;;;;5091888;28;20093;-67
2023/07/28 11:04:45;;;;;;;4.88;1.80;;;;;;;;;;5086789;28;20024;-67
2023/07/28 11:07:13;;;;;;;5.72;1.85;;;;;;;;;;5091028;28;20016;-64
2023/07/28 11:09:42;;;;;;;5.45;1.90;;;;;;;;;;5096348;28;20024;-61
2023/07/28 11:12:09;;;;;;;5.88;1.80;;;;;;;;;;5092197;28;20043;-65
2023/07/28 11:14:36;;;;;;;5.63;2.50;;;;;;;;;;5084037;28;20035;-63
2023/07/28 11:17:02;;;;;;;5.18;2.00;;;;;;;;;;5082318;28;20136;-71
2023/07/28 11:19:27;;;;;;;5.70;2.30;;;;;;;;;;5090673;28;20114;-63
2023/07/28 11:21:53;;;;;;;4.60;1.90;;;;;;;;;;5085617;28;20028;-69
2023/07/28 11:24:22;;;;;;;4.70;1.98;;;;;;;;;;5089325;28;20246;-67
2023/07/28 11:26:48;;;;;;;4.28;1.98;;;;;;;;;;5086753;28;20418;-66
2023/07/28 11:29:21;;;;;;;7.70;2.15;;;;;;;;;;5086926;28;20016;-64
2023/07/28 11:31:49;;;;;;;4.85;2.00;;;;;;;;;;5082636;28;20023;-69
2023/07/28 11:34:18;;;;;;;5.60;2.17;;;;;;;;;;5081436;28;20020;-67
2023/07/28 11:36:43;;;;;;;6.65;2.00;;;;;;;;;;5092865;28;20097;-66
2023/07/28 11:39:11;;;;;;;4.50;2.00;;;;;;;;;;5089247;28;20115;-68
2023/07/28 11:41:37;;;;;;;6.82;2.50;;;;;;;;;;5093764;28;20077;-63
2023/07/28 11:44:04;;;;;;;5.82;2.03;;;;;;;;;;5081221;28;20035;-63
2023/07/28 11:46:33;;;;;;;4.30;2.00;;;;;;;;;;5085085;28;20568;-66
2023/07/28 11:49:11;;;;;;;6.78;2.63;;;;;;;;;;5096274;28;20020;-65
2023/07/28 11:51:43;;;;;;;7.67;2.10;;;;;;;;;;5093435;28;20236;-64
2023/07/28 11:54:10;;;;;;;4.75;2.00;;;;;;;;;;5084489;28;20024;-63
2023/07/28 11:56:35;;;;;;;5.07;2.00;;;;;;;;;;5088767;28;20035;-65
2023/07/28 11:59:02;;;;;;;6.28;1.90;;;;;;;;;;5092832;28;20016;-65
2023/07/28 12:01:29;;;;;;;5.63;2.47;;;;;;;;;;5087432;28;20035;-63
2023/07/28 12:03:54;;;;;;;6.30;2.20;;;;;;;;;;5093747;28;20024;-67
2023/07/28 12:06:19;;;;;;;4.33;2.10;;;;;;;;;;5108099;27;20350;-64
2023/07/28 12:08:45;;;;;;;4.40;1.95;;;;;;;;;;5091922;28;20713;-66
2023/07/28 12:11:13;;;;;;;4.90;1.87;;;;;;;;;;5100768;28;20023;-65
2023/07/28 12:13:51;;;;;;;6.22;2.47;;;;;;;;;;5093175;28;21217;-64
2023/07/28 12:16:38;;;;;;;5.82;2.08;;;;;;;;;;5089852;28;20034;-67
2023/07/28 12:19:04;;;;;;;5.80;2.20;;;;;;;;;;5088759;28;20131;-65
2023/07/28 12:21:31;;;;;;;5.00;2.28;;;;;;;;;;5090872;28;20020;-64
2023/07/28 12:24:01;;;;;;;5.50;2.10;;;;;;;;;;5092317;28;20016;-64
2023/07/28 12:26:26;;;;;;;5.20;2.10;;;;;;;;;;5093632;28;20078;-71
2023/07/28 12:28:52;;;;;;;5.83;2.43;;;;;;;;;;5089609;28;20182;-69
2023/07/28 12:31:17;;;;;;;7.17;2.20;;;;;;;;;;5097597;28;20038;-66
2023/07/28 12:33:45;;;;;;;6.13;2.07;;;;;;;;;;5092334;28;20028;-65
2023/07/28 12:36:10;;;;;;;5.72;2.30;;;;;;;;;;5090787;28;20045;-62
2023/07/28 12:38:35;;;;;;;4.65;1.92;;;;;;;;;;5097212;28;20011;-62
2023/07/28 12:41:00;;;;;;;5.57;2.30;;;;;;;;;;5099007;28;20019;-68
2023/07/28 12:43:26;;;;;;;4.77;2.20;;;;;;;;;;5100361;28;20062;-62
2023/07/28 12:45:52;;;;;;;6.28;2.30;;;;;;;;;;5095403;28;20895;-64
2023/07/28 12:48:18;;;;;;;5.25;2.40;;;;;;;;;;5092758;28;20448;-64
2023/07/28 12:50:43;;;;;;;5.83;2.57;;;;;;;;;;5095305;28;20019;-64
2023/07/28 12:53:08;;;;;;;7.00;2.10;;;;;;;;;;5098773;28;20413;-64
2023/07/28 12:55:34;;;;;;;6.10;2.28;;;;;;;;;;5095815;28;20039;-63
2023/07/28 12:58:00;;;;;;;5.82;2.42;;;;;;;;;;5096637;28;20528;-65
2023/07/28 13:00:27;;;;;;;5.32;2.60;;;;;;;;;;5092790;28;20024;-64
2023/07/28 13:02:55;;;;;;;5.15;2.30;;;;;;;;;;5094240;28;20142;-65
2023/07/28 13:05:21;;;;;;;6.03;2.20;;;;;;;;;;5090533;28;20039;-62
2023/07/28 13:07:46;;;;;;;5.03;2.20;;;;;;;;;;5095528;28;20047;-64
2023/07/28 13:10:11;;;;;;;4.97;2.13;;;;;;;;;;5095922;28;20023;-63
2023/07/28 13:12:37;;;;;;;6.15;2.40;;;;;;;;;;5090619;28;20032;-64
2023/07/28 13:15:03;;;;;;;6.53;2.38;;;;;;;;;;5093325;28;20026;-65
2023/07/28 13:17:28;;;;;;;7.22;2.42;;;;;;;;;;5095771;28;20015;-62
2023/07/28 13:19:53;;;;;;;5.47;2.50;;;;;;;;;;5094981;28;20027;-63
2023/07/28 13:22:19;;;;;;;8.18;2.63;;;;;;;;;;5092740;28;20382;-62
2023/07/28 13:24:46;;;;;;;6.17;2.40;;;;;;;;;;5092659;28;20043;-63
2023/07/28 13:27:13;;;;;;;6.78;2.50;;;;;;;;;;5098734;28;21279;-63
2023/07/28 13:29:39;;;;;;;7.43;2.58;;;;;;;;;;5098625;28;20035;-63
2023/07/28 13:32:14;;;;;;;5.73;2.27;;;;;;;;;;5095044;28;20209;-63
2023/07/28 13:34:39;;;;;;;4.95;2.22;;;;;;;;;;5093040;28;20352;-64
2023/07/28 13:37:05;;;;;;;7.23;2.73;;;;;;;;;;5095240;28;20651;-62
2023/07/28 13:39:30;;;;;;;6.30;2.50;;;;;;;;;;5093616;28;20261;-66
2023/07/28 13:41:55;;;;;;;5.80;2.53;;;;;;;;;;5094582;28;20300;-63
2023/07/28 13:44:20;;;;;;;5.53;2.40;;;;;;;;;;5095209;28;20020;-64
2023/07/28 13:46:46;;;;;;;5.40;2.57;;;;;;;;;;5092994;28;20096;-63
2023/07/28 13:49:13;;;;;;;6.68;2.30;;;;;;;;;;5094952;28;20261;-65
2023/07/28 13:51:39;;;;;;;5.50;2.33;;;;;;;;;;5097459;28;20319;-59
2023/07/28 13:54:04;;;;;;;8.30;2.83;;;;;;;;;;5091549;28;20504;-62
2023/07/28 13:56:29;;;;;;;7.00;2.87;;;;;;;;;;5095573;28;20062;-62
2023/07/28 13:58:57;;;;;;;5.30;2.90;;;;;;;;;;5089390;28;20028;-67
2023/07/28 14:01:24;;;;;;;5.82;2.53;;;;;;;;;;5091741;28;20027;-64
2023/07/28 14:03:49;;;;;;;6.88;2.78;;;;;;;;;;5093264;28;20030;-62
2023/07/28 14:06:15;;;;;;;6.53;2.72;;;;;;;;;;5084668;28;20054;-65
2023/07/28 14:08:40;;;;;;;7.13;2.70;;;;;;;;;;5093050;28;20015;-68
2023/07/28 14:11:07;;;;;;;5.50;2.50;;;;;;;;;;5093210;28;20024;-63
2023/07/28 14:13:35;;;;;;;5.93;3.00;;;;;;;;;;5090016;28;20129;-64
2023/07/28 14:16:00;;;;;;;6.90;2.92;;;;;;;;;;5088396;28;20091;-66
2023/07/28 14:18:25;;;;;;;7.37;2.90;;;;;;;;;;5089927;28;20047;-62
2023/07/28 14:20:51;;;;;;;7.27;3.30;;;;;;;;;;5093207;28;21301;-67
2023/07/28 14:23:23;;;;;;;6.03;3.10;;;;;;;;;;5092878;28;20120;-63
2023/07/28 14:25:49;;;;;;;7.60;3.05;;;;;;;;;;5093368;28;20023;-63
2023/07/28 14:28:14;;;;;;;6.65;2.92;;;;;;;;;;5089387;28;20034;-67
2023/07/28 14:30:39;;;;;;;5.67;2.97;;;;;;;;;;5091610;28;20658;-66
2023/07/28 14:33:04;;;;;;;6.20;3.00;;;;;;;;;;5089675;28;20058;-63
2023/07/28 14:35:35;;;;;;;5.30;2.63;;;;;;;;;;5093369;28;20008;-63
2023/07/28 14:38:00;;;;;;;6.82;3.08;;;;;;;;;;5091431;28;20024;-65
2023/07/28 14:40:29;;;;;;;6.13;3.30;;;;;;;;;;5089242;28;20031;-63
2023/07/28 14:42:54;;;;;;;6.82;3.03;;;;;;;;;;5088860;28;20721;-63
2023/07/28 14:45:21;;;;;;;7.53;3.50;;;;;;;;;;5093757;28;20037;-66
2023/07/28 14:47:46;;;;;;;8.00;3.35;;;;;;;;;;5087798;28;20020;-63
2023/07/28 14:50:12;;;;;;;8.67;3.40;;;;;;;;;;5096926;28;20584;-64
2023/07/28 14:52:39;;;;;;;9.20;3.27;;;;;;;;;;5084661;28;20050;-65
2023/07/28 14:55:04;;;;;;;11.73;4.00;;;;;;;;;;5092415;28;20031;-60
2023/07/28 14:57:32;;;;;;;8.30;3.78;;;;;;;;;;5089488;28;20008;-65
2023/07/28 15:00:00;;;;;;;6.72;3.38;;;;;;;;;;5087190;28;20071;-64
2023/07/28 15:02:25;;;;;;;5.50;3.38;;;;;;;;;;5092306;28;20028;-65
2023/07/28 15:04:52;;;;;;;6.87;3.20;;;;;;;;;;5088493;28;20020;-63
2023/07/28 15:07:22;;;;;;;5.90;3.40;;;;;;;;;;5088923;28;20261;-61
2023/07/28 15:09:47;;;;;;;5.97;3.28;;;;;;;;;;5092296;28;20016;-63
2023/07/28 15:12:13;;;;;;;7.10;3.40;;;;;;;;;;5087046;28;20391;-60
2023/07/28 15:14:38;;;;;;;6.40;3.80;;;;;;;;;;5089766;28;20030;-61
2023/07/28 15:17:03;;;;;;;7.20;3.33;;;;;;;;;;5093031;28;20015;-66
2023/07/28 15:19:30;;;;;;;8.15;3.70;;;;;;;;;;5091959;28;20059;-64
2023/07/28 15:21:56;;;;;;;6.88;3.35;;;;;;;;;;5092009;28;20062;-62
2023/07/28 15:24:22;;;;;;;8.20;3.30;;;;;;;;;;5093508;27;20024;-64